createdAt,value
2017-06-24T00:00:08.715Z,100532.41
2017-06-24T00:02:36.847Z,100529.09
2017-06-24T00:05:04.756Z,100527.38
2017-06-24T00:07:32.669Z,100532.06
2017-06-24T00:10:00.111Z,100531.26
2017-06-24T00:12:30.811Z,100535.97
2017-06-24T00:14:59.739Z,100534.86
2017-06-24T00:17:27.170Z,100537.75
2017-06-24T00:19:54.639Z,100527.88
2017-06-24T00:22:22.472Z,100535.88
2017-06-24T00:24:51.334Z,100532.45
2017-06-24T00:27:19.114Z,100533.84
2017-06-24T00:29:47.248Z,100532.81
2017-06-24T00:32:14.687Z,100530.88
2017-06-24T00:34:42.250Z,100540.48
2017-06-24T00:37:10.740Z,100528.95
2017-06-24T00:39:38.171Z,100525.08
2017-06-24T00:42:05.699Z,100523.27
2017-06-24T00:44:33.398Z,100525.50
2017-06-24T00:47:00.846Z,100529.30
2017-06-24T00:49:28.453Z,100528.83
2017-06-24T00:51:56.365Z,100529.89
2017-06-24T00:54:23.794Z,100524.87
2017-06-24T00:56:51.562Z,100530.31
2017-06-24T00:59:19.000Z,100524.83
2017-06-24T01:01:46.471Z,100524.91
2017-06-24T01:04:15.538Z,100521.70
2017-06-24T01:06:43.247Z,100524.78
2017-06-24T01:09:10.716Z,100519.27
2017-06-24T01:11:38.519Z,100520.89
2017-06-24T01:14:05.949Z,100522.05
2017-06-24T01:16:36.294Z,100525.92
2017-06-24T01:19:06.051Z,100524.25
2017-06-24T01:21:36.998Z,100525.11
2017-06-24T01:24:04.488Z,100523.73
2017-06-24T01:26:31.907Z,100524.71
2017-06-24T01:28:59.411Z,100530.35
2017-06-24T01:31:26.867Z,100529.57
2017-06-24T01:33:54.564Z,100528.87
2017-06-24T01:36:22.095Z,100530.02
2017-06-24T01:38:49.680Z,100528.45
2017-06-24T01:41:17.625Z,100533.33
2017-06-24T01:43:45.092Z,100526.55
2017-06-24T01:46:12.547Z,100526.31
2017-06-24T01:48:40.491Z,100533.83
2017-06-24T01:51:09.844Z,100531.70
2017-06-24T01:53:38.505Z,100525.83
2017-06-24T01:56:06.002Z,100527.25
2017-06-24T01:58:33.438Z,100522.88
2017-06-24T02:01:00.900Z,100524.71
2017-06-24T02:03:28.664Z,100522.66
2017-06-24T02:05:58.966Z,100524.67
2017-06-24T02:08:26.397Z,100519.28
2017-06-24T02:10:53.858Z,100521.12
2017-06-24T02:13:21.315Z,100516.41
2017-06-24T02:15:51.226Z,100518.77
2017-06-24T02:18:22.097Z,100519.41
2017-06-24T02:20:49.672Z,100521.75
2017-06-24T02:23:17.107Z,100514.96
2017-06-24T02:25:44.771Z,100510.84
2017-06-24T02:28:12.200Z,100516.38
2017-06-24T02:30:42.967Z,100513.39
2017-06-24T02:33:10.411Z,100509.81
2017-06-24T02:35:38.125Z,100503.70
2017-06-24T02:38:07.735Z,100505.83
2017-06-24T02:40:35.719Z,100504.02
2017-06-24T02:43:03.592Z,100499.66
2017-06-24T02:45:31.003Z,100495.65
2017-06-24T02:47:58.882Z,100496.84
2017-06-24T02:50:26.713Z,100498.83
2017-06-24T02:52:54.159Z,100497.87
2017-06-24T02:55:21.596Z,100488.99
2017-06-24T02:57:49.399Z,100487.65
2017-06-24T03:00:17.572Z,100483.55
2017-06-24T03:02:45.036Z,100487.36
2017-06-24T03:05:12.534Z,100478.40
2017-06-24T03:07:39.997Z,100474.05
2017-06-24T03:10:07.434Z,100478.38
2017-06-24T03:12:42.649Z,100477.20
2017-06-24T03:15:10.378Z,100467.12
2017-06-24T03:17:38.603Z,100476.12
2017-06-24T03:20:06.035Z,100478.41
2017-06-24T03:22:33.468Z,100480.95
2017-06-24T03:25:00.935Z,100479.33
2017-06-24T03:27:29.379Z,100476.28
2017-06-24T03:29:57.167Z,100473.15
2017-06-24T03:32:24.603Z,100471.59
2017-06-24T03:34:52.040Z,100466.22
2017-06-24T03:37:19.946Z,100470.52
2017-06-24T03:39:47.603Z,100468.75
2017-06-24T03:42:16.222Z,100460.33
2017-06-24T03:44:44.311Z,100463.12
2017-06-24T03:47:11.757Z,100472.66
2017-06-24T03:49:39.785Z,100465.00
2017-06-24T03:52:07.667Z,100472.95
2017-06-24T03:54:35.095Z,100466.55
2017-06-24T03:57:02.779Z,100463.89
2017-06-24T03:59:30.955Z,100459.08
2017-06-24T04:01:58.569Z,100457.22
2017-06-24T04:04:27.167Z,100450.02
2017-06-24T04:06:54.631Z,100449.30
2017-06-24T04:09:22.092Z,100455.45
2017-06-24T04:11:50.015Z,100453.67
2017-06-24T04:14:17.547Z,100455.17
2017-06-24T04:16:45.117Z,100457.44
2017-06-24T04:19:12.794Z,100457.87
2017-06-24T04:21:40.632Z,100459.16
2017-06-24T04:24:08.418Z,100453.47
2017-06-24T04:26:36.350Z,100447.81
2017-06-24T04:29:04.535Z,100451.36
2017-06-24T04:31:33.132Z,100455.31
2017-06-24T04:34:01.725Z,100460.55
2017-06-24T04:36:29.307Z,100456.47
2017-06-24T04:38:57.207Z,100460.73
2017-06-24T04:41:24.627Z,100461.06
2017-06-24T04:43:53.466Z,100461.53
2017-06-24T04:46:23.262Z,100456.28
2017-06-24T04:48:50.792Z,100456.62
2017-06-24T04:51:20.259Z,100461.51
2017-06-24T04:53:47.723Z,100455.69
2017-06-24T04:56:15.156Z,100454.45
2017-06-24T04:58:42.598Z,100446.14
2017-06-24T05:01:11.274Z,100447.11
2017-06-24T05:03:39.095Z,100444.05
2017-06-24T05:06:06.857Z,100446.46
2017-06-24T05:08:34.311Z,100448.73
2017-06-24T05:11:01.767Z,100442.28
2017-06-24T05:13:29.798Z,100444.63
2017-06-24T05:15:57.275Z,100447.41
2017-06-24T05:18:24.711Z,100447.56
2017-06-24T05:20:52.724Z,100443.74
2017-06-24T05:23:20.147Z,100436.66
2017-06-24T05:25:48.118Z,100438.85
2017-06-24T05:28:17.096Z,100433.03
2017-06-24T05:30:45.017Z,100432.98
2017-06-24T05:33:12.938Z,100433.23
2017-06-24T05:35:40.477Z,100431.58
2017-06-24T05:38:08.624Z,100432.83
2017-06-24T05:40:39.185Z,100430.47
2017-06-24T05:43:08.154Z,100431.13
2017-06-24T05:45:35.598Z,100432.14
2017-06-24T05:48:03.652Z,100430.33
2017-06-24T05:50:31.074Z,100431.36
2017-06-24T05:52:58.479Z,100426.71
2017-06-24T05:55:25.956Z,100422.34
2017-06-24T05:57:53.391Z,100422.05
2017-06-24T06:00:20.841Z,100428.94
2017-06-24T06:02:48.298Z,100425.45
2017-06-24T06:05:15.759Z,100422.16
2017-06-24T06:07:45.781Z,100426.56
2017-06-24T06:10:13.221Z,100426.20
2017-06-24T06:12:41.165Z,100423.25
2017-06-24T06:15:09.328Z,100432.43
2017-06-24T06:17:37.119Z,100437.48
2017-06-24T06:20:04.547Z,100429.34
2017-06-24T06:22:32.002Z,100432.05
2017-06-24T06:24:59.436Z,100426.99
2017-06-24T06:27:26.854Z,100426.61
2017-06-24T06:29:54.290Z,100428.59
2017-06-24T06:32:21.773Z,100430.91
2017-06-24T06:34:49.219Z,100426.95
2017-06-24T06:37:16.634Z,100423.06
2017-06-24T06:39:44.054Z,100425.59
2017-06-24T06:42:11.482Z,100429.77
2017-06-24T06:44:39.509Z,100424.42
2017-06-24T06:47:06.981Z,100434.34
2017-06-24T06:49:34.774Z,100424.88
2017-06-24T06:52:02.192Z,100430.63
2017-06-24T06:54:35.963Z,100431.70
2017-06-24T06:57:03.919Z,100432.33
2017-06-24T06:59:31.359Z,100438.62
2017-06-24T07:01:59.134Z,100444.36
2017-06-24T07:04:26.564Z,100438.73
2017-06-24T07:06:53.983Z,100450.89
2017-06-24T07:09:21.867Z,100443.69
2017-06-24T07:11:49.542Z,100451.55
2017-06-24T07:14:16.987Z,100452.19
2017-06-24T07:17:01.649Z,100456.44
2017-06-24T07:19:29.067Z,100454.45
2017-06-24T07:21:56.599Z,100456.63
2017-06-24T07:24:24.163Z,100462.86
2017-06-24T07:26:51.919Z,100453.38
2017-06-24T07:29:19.339Z,100460.84
2017-06-24T07:31:46.750Z,100463.80
2017-06-24T07:34:14.181Z,100456.41
2017-06-24T07:36:41.591Z,100462.58
2017-06-24T07:39:09.351Z,100458.25
2017-06-24T07:41:36.783Z,100451.74
2017-06-24T07:44:04.208Z,100450.92
2017-06-24T07:46:36.622Z,100447.25
2017-06-24T07:49:04.061Z,100443.41
2017-06-24T07:51:31.500Z,100445.65
2017-06-24T07:53:58.911Z,100449.76
2017-06-24T07:56:27.385Z,100451.70
2017-06-24T07:58:57.315Z,100449.73
2017-06-24T08:01:31.214Z,100447.00
2017-06-24T08:03:58.970Z,100444.34
2017-06-24T08:06:26.843Z,100455.30
2017-06-24T08:08:54.738Z,100447.70
2017-06-24T08:11:22.152Z,100457.70
2017-06-24T08:13:49.586Z,100451.02
2017-06-24T08:16:17.016Z,100453.97
2017-06-24T08:18:44.562Z,100454.02
2017-06-24T08:21:11.981Z,100451.28
2017-06-24T08:23:39.403Z,100443.00
2017-06-24T08:26:06.830Z,100449.00
2017-06-24T08:28:34.711Z,100444.84
2017-06-24T08:31:03.413Z,100445.58
2017-06-24T08:33:30.991Z,100450.14
2017-06-24T08:35:59.626Z,100450.11
2017-06-24T08:38:27.048Z,100453.08
2017-06-24T08:40:54.485Z,100443.39
2017-06-24T08:43:21.914Z,100447.06
2017-06-24T08:45:54.448Z,100446.41
2017-06-24T08:48:22.131Z,100445.62
2017-06-24T08:50:52.002Z,100435.88
2017-06-24T08:53:19.492Z,100446.17
2017-06-24T08:55:46.931Z,100431.57
2017-06-24T08:58:14.334Z,100426.86
2017-06-24T09:00:41.762Z,100421.31
2017-06-24T09:03:09.194Z,100411.02
2017-06-24T09:05:39.303Z,100420.42
2017-06-24T09:08:06.714Z,100417.45
2017-06-24T09:10:35.123Z,100420.00
2017-06-24T09:13:02.562Z,100413.46
2017-06-24T09:15:29.979Z,100415.48
2017-06-24T09:17:57.403Z,100419.27
2017-06-24T09:20:25.867Z,100415.06
2017-06-24T09:22:54.091Z,100410.34
2017-06-24T09:25:21.542Z,100417.51
2017-06-24T09:27:49.707Z,100420.58
2017-06-24T09:30:17.135Z,100416.44
2017-06-24T09:32:45.479Z,100416.43
2017-06-24T09:35:13.408Z,100412.50
2017-06-24T09:37:40.846Z,100412.61
2017-06-24T09:40:08.271Z,100415.56
2017-06-24T09:42:38.064Z,100416.09
2017-06-24T09:45:07.583Z,100408.16
2017-06-24T09:47:34.996Z,100411.34
2017-06-24T09:50:02.891Z,100416.72
2017-06-24T09:52:30.347Z,100410.14
2017-06-24T09:54:58.507Z,100407.34
2017-06-24T09:57:25.950Z,100401.20
2017-06-24T09:59:53.371Z,100406.89
2017-06-24T10:02:21.228Z,100408.55
2017-06-24T10:04:48.706Z,100405.61
2017-06-24T10:07:18.667Z,100402.55
2017-06-24T10:09:46.871Z,100405.24
2017-06-24T10:12:16.215Z,100392.86
2017-06-24T10:17:36.822Z,100397.52
2017-06-24T10:20:05.589Z,100397.38
2017-06-24T10:22:33.451Z,100392.64
2017-06-24T10:25:01.106Z,100392.87
2017-06-24T10:27:28.999Z,100399.08
2017-06-24T10:30:00.231Z,100392.11
2017-06-24T10:32:27.663Z,100389.44
2017-06-24T10:34:55.071Z,100390.20
2017-06-24T10:37:22.503Z,100390.30
2017-06-24T10:39:49.924Z,100389.73
2017-06-24T10:42:18.900Z,100398.94
2017-06-24T10:44:46.328Z,100391.77
2017-06-24T10:47:13.760Z,100388.60
2017-06-24T10:49:41.187Z,100389.63
2017-06-24T10:52:08.605Z,100388.02
2017-06-24T10:54:36.373Z,100380.76
2017-06-24T10:57:03.801Z,100383.05
2017-06-24T10:59:31.240Z,100390.38
2017-06-24T11:01:58.671Z,100392.11
2017-06-24T11:04:26.099Z,100393.92
2017-06-24T11:06:53.531Z,100397.46
2017-06-24T11:09:20.950Z,100393.02
2017-06-24T11:11:48.488Z,100395.31
2017-06-24T11:14:15.912Z,100394.48
2017-06-24T11:16:43.331Z,100404.13
2017-06-24T11:19:10.762Z,100394.92
2017-06-24T11:21:38.194Z,100398.58
2017-06-24T11:24:18.547Z,100399.34
2017-06-24T11:26:47.852Z,100398.29
2017-06-24T11:29:15.319Z,100399.00
2017-06-24T11:31:42.739Z,100396.41
2017-06-24T11:34:10.515Z,100399.29
2017-06-24T11:36:37.959Z,100393.42
2017-06-24T11:39:05.375Z,100403.48
2017-06-24T11:41:33.989Z,100397.28
2017-06-24T11:44:01.403Z,100389.12
2017-06-24T11:46:29.159Z,100396.20
2017-06-24T11:48:56.578Z,100396.33
2017-06-24T11:51:24.745Z,100396.25
2017-06-24T11:53:53.051Z,100392.55
2017-06-24T11:56:20.478Z,100393.45
2017-06-24T11:58:47.966Z,100390.83
2017-06-24T12:01:15.979Z,100404.62
2017-06-24T12:03:43.606Z,100388.27
2017-06-24T12:06:11.027Z,100394.44
2017-06-24T12:08:38.567Z,100391.66
2017-06-24T12:11:06.008Z,100390.05
2017-06-24T12:13:33.620Z,100385.66
2017-06-24T12:16:01.042Z,100388.91
2017-06-24T12:18:28.486Z,100386.51
2017-06-24T12:20:57.044Z,100380.95
2017-06-24T12:23:26.292Z,100387.17
2017-06-24T12:25:54.203Z,100387.23
2017-06-24T12:28:21.647Z,100389.27
2017-06-24T12:30:49.744Z,100392.93
2017-06-24T12:33:17.443Z,100388.84
2017-06-24T12:35:44.858Z,100386.13
2017-06-24T12:38:12.568Z,100389.52
2017-06-24T12:40:40.023Z,100392.64
2017-06-24T12:43:08.221Z,100383.89
2017-06-24T12:45:36.132Z,100379.43
2017-06-24T12:48:03.594Z,100374.15
2017-06-24T12:50:31.085Z,100373.85
2017-06-24T12:52:58.560Z,100373.54
2017-06-24T12:55:26.026Z,100379.89
2017-06-24T12:57:58.206Z,100373.92
2017-06-24T13:00:26.399Z,100373.91
2017-06-24T13:02:53.897Z,100375.10
2017-06-24T13:05:21.328Z,100375.10
2017-06-24T13:07:49.643Z,100370.16
2017-06-24T13:10:17.095Z,100372.91
2017-06-24T13:12:44.668Z,100358.44
2017-06-24T13:15:12.803Z,100353.94
2017-06-24T13:17:40.503Z,100368.71
2017-06-24T13:20:08.351Z,100362.72
2017-06-24T13:22:37.060Z,100360.14
2017-06-24T13:25:04.628Z,100351.63
2017-06-24T13:27:32.118Z,100363.35
2017-06-24T13:29:59.610Z,100360.08
2017-06-24T13:32:27.169Z,100357.08
2017-06-24T13:34:55.326Z,100362.44
2017-06-24T13:37:22.795Z,100362.06
2017-06-24T13:39:50.283Z,100359.39
2017-06-24T13:42:18.357Z,100360.95
2017-06-24T13:44:48.691Z,100370.08
2017-06-24T13:47:16.898Z,100367.47
2017-06-24T13:49:44.370Z,100357.48
2017-06-24T13:52:12.255Z,100358.83
2017-06-24T13:54:39.712Z,100351.69
2017-06-24T13:57:07.542Z,100344.27
2017-06-24T13:59:34.996Z,100348.70
2017-06-24T14:02:02.431Z,100347.61
2017-06-24T14:04:30.432Z,100348.80
2017-06-24T14:07:00.240Z,100342.06
2017-06-24T14:09:28.271Z,100345.97
2017-06-24T14:11:56.095Z,100339.63
2017-06-24T14:14:24.021Z,100332.67
2017-06-24T14:16:53.971Z,100330.74
2017-06-24T14:19:21.845Z,100321.43
2017-06-24T14:21:49.542Z,100324.58
2017-06-24T14:24:17.016Z,100329.70
2017-06-24T14:26:44.786Z,100325.41
2017-06-24T14:29:12.227Z,100321.39
2017-06-24T14:31:39.683Z,100319.35
2017-06-24T14:34:08.511Z,100308.78
2017-06-24T14:36:38.999Z,100307.86
2017-06-24T14:39:06.467Z,100310.66
2017-06-24T14:41:34.375Z,100308.11
2017-06-24T14:44:02.446Z,100311.88
2017-06-24T14:46:31.799Z,100306.11
2017-06-24T14:49:09.199Z,100298.29
2017-06-24T14:51:36.711Z,100301.89
2017-06-24T14:54:12.272Z,100303.92
2017-06-24T14:56:47.544Z,100293.86
2017-06-24T14:59:15.083Z,100294.61
2017-06-24T15:01:42.992Z,100295.22
2017-06-24T15:04:10.453Z,100298.88
2017-06-24T15:06:38.439Z,100301.47
2017-06-24T15:09:06.427Z,100295.22
2017-06-24T15:11:35.585Z,100295.05
2017-06-24T15:14:08.115Z,100300.32
2017-06-24T15:16:35.753Z,100302.79
2017-06-24T15:19:17.095Z,100292.41
2017-06-24T15:21:44.791Z,100290.72
2017-06-24T15:24:13.038Z,100289.93
2017-06-24T15:26:43.062Z,100289.19
2017-06-24T15:29:10.550Z,100283.30
2017-06-24T15:31:38.439Z,100282.00
2017-06-24T15:34:06.904Z,100280.51
2017-06-24T15:36:34.411Z,100281.26
2017-06-24T15:39:03.187Z,100271.30
2017-06-24T15:41:31.222Z,100277.25
2017-06-24T15:43:59.000Z,100280.07
2017-06-24T15:46:27.431Z,100275.78
2017-06-24T15:48:55.349Z,100279.66
2017-06-24T15:51:22.830Z,100271.41
2017-06-24T15:53:50.769Z,100269.34
2017-06-24T15:56:18.976Z,100269.34
2017-06-24T15:58:51.647Z,100268.34
2017-06-24T16:01:19.091Z,100263.84
2017-06-24T16:03:46.592Z,100265.34
2017-06-24T16:06:15.016Z,100264.70
2017-06-24T16:08:42.480Z,100262.41
2017-06-24T16:11:10.841Z,100261.09
2017-06-24T16:13:38.300Z,100264.84
2017-06-24T16:16:05.883Z,100263.05
2017-06-24T16:18:33.332Z,100258.03
2017-06-24T16:21:00.770Z,100253.87
2017-06-24T16:23:30.376Z,100260.06
2017-06-24T16:26:00.949Z,100254.31
2017-06-24T16:28:28.401Z,100252.83
2017-06-24T16:30:55.944Z,100251.95
2017-06-24T16:33:23.381Z,100251.02
2017-06-24T16:35:50.881Z,100255.12
2017-06-24T16:38:18.311Z,100258.86
2017-06-24T16:40:46.991Z,100250.09
2017-06-24T16:43:14.423Z,100257.58
2017-06-24T16:45:41.859Z,100248.67
2017-06-24T16:48:09.846Z,100247.55
2017-06-24T16:50:37.302Z,100256.70
2017-06-24T16:53:04.739Z,100250.66
2017-06-24T16:55:32.172Z,100247.21
2017-06-24T16:58:00.039Z,100251.52
2017-06-24T17:00:28.111Z,100255.34
2017-06-24T17:02:56.167Z,100254.84
2017-06-24T17:05:23.594Z,100248.52
2017-06-24T17:07:51.019Z,100251.52
2017-06-24T17:10:18.619Z,100249.24
2017-06-24T17:13:00.574Z,100251.03
2017-06-24T17:15:28.244Z,100255.47
2017-06-24T17:17:55.666Z,100257.13
2017-06-24T17:20:23.114Z,100255.70
2017-06-24T17:22:50.537Z,100262.35
2017-06-24T17:25:20.319Z,100255.45
2017-06-24T17:27:47.786Z,100249.02
2017-06-24T17:30:21.786Z,100248.94
2017-06-24T17:32:49.489Z,100246.12
2017-06-24T17:35:16.905Z,100239.92
2017-06-24T17:37:44.995Z,100248.94
2017-06-24T17:40:12.879Z,100241.97
2017-06-24T17:42:40.327Z,100246.06
2017-06-24T17:45:14.735Z,100244.11
2017-06-24T17:47:42.142Z,100242.67
2017-06-24T17:50:09.804Z,100239.53
2017-06-24T17:52:37.235Z,100236.77
2017-06-24T17:55:04.710Z,100229.97
2017-06-24T17:57:32.463Z,100228.73
2017-06-24T18:00:00.174Z,100227.36
2017-06-24T18:02:27.597Z,100229.31
2017-06-24T18:04:56.426Z,100235.09
2017-06-24T18:07:23.838Z,100228.80
2017-06-24T18:09:51.394Z,100221.34
2017-06-24T18:12:18.914Z,100233.64
2017-06-24T18:14:46.330Z,100238.17
2017-06-24T18:17:13.834Z,100232.86
2017-06-24T18:19:41.389Z,100228.22
2017-06-24T18:22:08.870Z,100235.83
2017-06-24T18:24:36.381Z,100229.53
2017-06-24T18:27:04.150Z,100223.45
2017-06-24T18:29:31.894Z,100218.42
2017-06-24T18:31:59.478Z,100217.22
2017-06-24T18:34:26.904Z,100218.25
2017-06-24T18:36:54.786Z,100210.78
2017-06-24T18:39:22.243Z,100213.30
2017-06-24T18:41:52.047Z,100205.23
2017-06-24T18:44:19.684Z,100202.28
2017-06-24T18:46:47.105Z,100204.13
2017-06-24T18:49:56.775Z,100206.61
2017-06-24T18:52:24.199Z,100210.09
2017-06-24T18:54:51.894Z,100207.30
2017-06-24T18:57:19.339Z,100208.58
2017-06-24T18:59:47.715Z,100201.93
2017-06-24T19:02:15.189Z,100197.79
2017-06-24T19:04:42.615Z,100194.49
2017-06-24T19:07:10.062Z,100193.89
2017-06-24T19:09:37.490Z,100195.47
2017-06-24T19:12:05.520Z,100190.92
2017-06-24T19:14:32.971Z,100192.69
2017-06-24T19:17:00.398Z,100190.30
2017-06-24T19:19:27.835Z,100187.84
2017-06-24T19:21:55.309Z,100188.88
2017-06-24T19:24:22.750Z,100183.86
2017-06-24T19:26:50.174Z,100185.38
2017-06-24T19:29:17.606Z,100181.67
2017-06-24T19:31:45.027Z,100185.54
2017-06-24T19:34:17.798Z,100179.45
2017-06-24T19:36:45.231Z,100179.36
2017-06-24T19:39:13.096Z,100178.59
2017-06-24T19:41:42.943Z,100177.12
2017-06-24T19:44:11.238Z,100173.64
2017-06-24T19:46:38.688Z,100172.98
2017-06-24T19:49:06.118Z,100181.66
2017-06-24T19:51:33.871Z,100180.73
2017-06-24T19:54:01.764Z,100182.94
2017-06-24T19:56:29.179Z,100183.10
2017-06-24T19:58:56.624Z,100180.02
2017-06-24T20:01:24.882Z,100177.69
2017-06-24T20:03:54.681Z,100176.11
2017-06-24T20:06:22.109Z,100179.09
2017-06-24T20:08:53.055Z,100178.84
2017-06-24T20:11:22.529Z,100185.16
2017-06-24T20:13:49.952Z,100177.70
2017-06-24T20:16:24.023Z,100188.67
2017-06-24T20:18:51.847Z,100189.33
2017-06-24T20:21:22.856Z,100186.63
2017-06-24T20:23:50.333Z,100189.59
2017-06-24T20:26:18.761Z,100194.61
2017-06-24T20:28:46.695Z,100199.25
2017-06-24T20:31:14.153Z,100202.22
2017-06-24T20:33:41.616Z,100189.33
2017-06-24T20:36:10.904Z,100200.04
2017-06-24T20:38:39.155Z,100197.59
2017-06-24T20:41:13.090Z,100196.39
2017-06-24T20:43:42.082Z,100192.78
2017-06-24T20:46:09.818Z,100195.39
2017-06-24T20:48:37.751Z,100196.61
2017-06-24T20:51:05.280Z,100189.47
2017-06-24T20:53:32.717Z,100183.34
2017-06-24T20:56:00.157Z,100186.73
2017-06-24T20:58:28.455Z,100181.05
2017-06-24T21:00:55.911Z,100171.61
2017-06-24T21:03:23.350Z,100168.08
2017-06-24T21:05:51.522Z,100169.49
2017-06-24T21:08:19.331Z,100173.34
2017-06-24T21:10:47.152Z,100181.34
2017-06-24T21:13:14.999Z,100183.25
2017-06-24T21:15:43.203Z,100179.45
2017-06-24T21:18:10.637Z,100180.77
2017-06-24T21:20:38.115Z,100183.63
2017-06-24T21:23:05.577Z,100193.13
2017-06-24T21:25:33.182Z,100188.53
2017-06-24T21:28:03.941Z,100188.63
2017-06-24T21:30:32.121Z,100193.63
2017-06-24T21:33:03.478Z,100193.48
2017-06-24T21:35:30.912Z,100195.94
2017-06-24T21:37:58.419Z,100195.36
2017-06-24T21:40:28.274Z,100200.41
2017-06-24T21:42:57.024Z,100195.78
2017-06-24T21:45:24.497Z,100198.53
2017-06-24T21:47:54.529Z,100204.61
2017-06-24T21:50:22.129Z,100196.77
2017-06-24T21:52:49.580Z,100193.66
2017-06-24T21:55:18.433Z,100193.13
2017-06-24T21:57:46.436Z,100183.48
2017-06-24T22:00:13.886Z,100183.83
2017-06-24T22:02:41.976Z,100192.61
2017-06-24T22:05:09.771Z,100193.31
2017-06-24T22:07:37.207Z,100192.34
2017-06-24T22:10:05.003Z,100194.75
2017-06-24T22:12:32.927Z,100185.72
2017-06-24T22:15:00.989Z,100180.98
2017-06-24T22:17:28.415Z,100182.63
2017-06-24T22:19:55.927Z,100179.36
2017-06-24T22:22:23.422Z,100181.12
2017-06-24T22:24:50.868Z,100180.15
2017-06-24T22:27:18.307Z,100173.90
2017-06-24T22:29:46.069Z,100177.70
2017-06-24T22:32:13.514Z,100181.88
2017-06-24T22:34:41.979Z,100176.46
2017-06-24T22:37:09.398Z,100185.04
2017-06-24T22:39:37.193Z,100181.39
2017-06-24T22:42:05.029Z,100181.30
2017-06-24T22:44:32.446Z,100175.09
2017-06-24T22:46:59.899Z,100174.00
2017-06-24T22:49:27.323Z,100174.27
2017-06-24T22:51:54.771Z,100170.47
2017-06-24T22:54:25.283Z,100168.17
2017-06-24T22:56:52.708Z,100168.14
2017-06-24T22:59:20.148Z,100162.83
2017-06-24T23:01:48.738Z,100163.52
2017-06-24T23:04:16.203Z,100153.38
2017-06-24T23:06:44.107Z,100158.54
2017-06-24T23:09:13.811Z,100158.30
2017-06-24T23:11:41.608Z,100158.30
2017-06-24T23:14:09.024Z,100156.27
2017-06-24T23:16:36.573Z,100161.02
2017-06-24T23:19:04.457Z,100156.16
2017-06-24T23:21:31.896Z,100150.06
2017-06-24T23:23:59.340Z,100150.50
2017-06-24T23:26:26.813Z,100146.70
2017-06-24T23:28:56.376Z,100147.23
2017-06-24T23:31:23.834Z,100147.53
2017-06-24T23:33:51.379Z,100149.55
2017-06-24T23:36:18.875Z,100140.76
2017-06-24T23:38:48.690Z,100141.73
2017-06-24T23:41:17.139Z,100140.34
2017-06-24T23:43:44.883Z,100144.29
2017-06-24T23:46:12.309Z,100143.61
2017-06-24T23:48:45.916Z,100136.02
2017-06-24T23:51:13.350Z,100133.87
2017-06-24T23:53:41.257Z,100132.22
2017-06-24T23:56:08.669Z,100128.98
2017-06-24T23:58:36.093Z,100127.36
